sensor_id;sensor_type;location;lat;lon;timestamp;pressure;altitude;pressure_sealevel;temperature;humidity
22550;BME280;11441;57.164;-2.120;2023-04-30T00:01:42;101677.16;;;7.50;100.00
22550;BME280;11441;57.164;-2.120;2023-04-30T00:04:08;101679.47;;;7.57;100.00
22550;BME280;11441;57.164;-2.120;2023-04-30T00:06:35;101670.03;;;7.63;100.00
22550;BME280;11441;57.164;-2.120;2023-04-30T00:09:21;101662.59;;;7.64;100.00
22550;BME280;11441;57.164;-2.120;2023-04-30T00:11:48;101667.59;;;7.62;100.00
22550;BME280;11441;57.164;-2.120;2023-04-30T00:14:15;101653.19;;;7.56;100.00
22550;BME280;11441;57.164;-2.120;2023-04-30T00:16:41;101660.66;;;7.64;100.00
22550;BME280;11441;57.164;-2.120;2023-04-30T00:19:08;101657.91;;;7.64;100.00
22550;BME280;11441;57.164;-2.120;2023-04-30T00:21:35;101649.06;;;7.67;100.00
22550;BME280;11441;57.164;-2.120;2023-04-30T00:24:02;101656.38;;;7.49;100.00
22550;BME280;11441;57.164;-2.120;2023-04-30T00:26:29;101648.22;;;7.58;100.00
22550;BME280;11441;57.164;-2.120;2023-04-30T00:28:56;101650.06;;;7.49;100.00
22550;BME280;11441;57.164;-2.120;2023-04-30T00:31:23;101635.25;;;7.50;100.00
22550;BME280;11441;57.164;-2.120;2023-04-30T00:33:50;101632.25;;;7.38;100.00
22550;BME280;11441;57.164;-2.120;2023-04-30T00:36:17;101632.66;;;7.31;100.00
22550;BME280;11441;57.164;-2.120;2023-04-30T00:38:44;101631.88;;;7.53;100.00
22550;BME280;11441;57.164;-2.120;2023-04-30T00:41:12;101627.25;;;7.62;100.00
22550;BME280;11441;57.164;-2.120;2023-04-30T00:43:39;101618.91;;;7.67;100.00
22550;BME280;11441;57.164;-2.120;2023-04-30T00:46:05;101626.41;;;7.53;100.00
22550;BME280;11441;57.164;-2.120;2023-04-30T00:48:33;101623.34;;;7.32;100.00
22550;BME280;11441;57.164;-2.120;2023-04-30T00:51:01;101626.22;;;7.49;100.00
22550;BME280;11441;57.164;-2.120;2023-04-30T00:53:30;101621.03;;;7.48;100.00
22550;BME280;11441;57.164;-2.120;2023-04-30T00:55:57;101619.91;;;7.49;100.00
22550;BME280;11441;57.164;-2.120;2023-04-30T00:58:24;101612.69;;;7.53;100.00
22550;BME280;11441;57.164;-2.120;2023-04-30T01:00:51;101607.41;;;7.34;100.00
22550;BME280;11441;57.164;-2.120;2023-04-30T01:03:19;101607.81;;;7.50;100.00
22550;BME280;11441;57.164;-2.120;2023-04-30T01:05:46;101593.19;;;7.54;100.00
22550;BME280;11441;57.164;-2.120;2023-04-30T01:08:13;101600.97;;;7.61;100.00
22550;BME280;11441;57.164;-2.120;2023-04-30T01:13:33;101586.75;;;7.36;100.00
22550;BME280;11441;57.164;-2.120;2023-04-30T01:16:22;101585.91;;;7.50;100.00
22550;BME280;11441;57.164;-2.120;2023-04-30T01:18:56;101580.84;;;7.43;100.00
22550;BME280;11441;57.164;-2.120;2023-04-30T01:21:26;101587.72;;;7.54;100.00
22550;BME280;11441;57.164;-2.120;2023-04-30T01:24:52;101586.81;;;7.68;100.00
22550;BME280;11441;57.164;-2.120;2023-04-30T01:27:23;101573.28;;;7.17;100.00
22550;BME280;11441;57.164;-2.120;2023-04-30T01:29:58;101586.34;;;7.43;100.00
22550;BME280;11441;57.164;-2.120;2023-04-30T01:32:26;101581.28;;;7.36;100.00
22550;BME280;11441;57.164;-2.120;2023-04-30T01:34:53;101575.66;;;7.19;100.00
22550;BME280;11441;57.164;-2.120;2023-04-30T01:37:58;101579.38;;;7.37;100.00
22550;BME280;11441;57.164;-2.120;2023-04-30T01:46:21;101579.53;;;7.63;100.00
22550;BME280;11441;57.164;-2.120;2023-04-30T01:51:30;101569.28;;;7.46;100.00
22550;BME280;11441;57.164;-2.120;2023-04-30T01:54:02;101576.69;;;7.23;100.00
22550;BME280;11441;57.164;-2.120;2023-04-30T01:56:36;101566.72;;;7.50;100.00
22550;BME280;11441;57.164;-2.120;2023-04-30T01:59:07;101561.34;;;7.45;100.00
22550;BME280;11441;57.164;-2.120;2023-04-30T02:01:36;101550.34;;;7.36;100.00
22550;BME280;11441;57.164;-2.120;2023-04-30T02:04:03;101556.13;;;7.34;100.00
22550;BME280;11441;57.164;-2.120;2023-04-30T02:06:31;101549.16;;;7.51;100.00
22550;BME280;11441;57.164;-2.120;2023-04-30T02:09:17;101552.28;;;7.35;100.00
22550;BME280;11441;57.164;-2.120;2023-04-30T02:11:44;101545.72;;;7.45;100.00
22550;BME280;11441;57.164;-2.120;2023-04-30T02:14:11;101551.94;;;7.60;100.00
22550;BME280;11441;57.164;-2.120;2023-04-30T02:16:37;101538.69;;;7.30;100.00
22550;BME280;11441;57.164;-2.120;2023-04-30T02:19:04;101543.94;;;7.41;100.00
22550;BME280;11441;57.164;-2.120;2023-04-30T02:21:31;101538.75;;;7.39;100.00
22550;BME280;11441;57.164;-2.120;2023-04-30T02:23:58;101540.03;;;7.42;100.00
22550;BME280;11441;57.164;-2.120;2023-04-30T02:26:25;101535.56;;;7.46;100.00
22550;BME280;11441;57.164;-2.120;2023-04-30T02:29:10;101528.16;;;7.46;100.00
22550;BME280;11441;57.164;-2.120;2023-04-30T02:31:37;101526.22;;;7.47;100.00
22550;BME280;11441;57.164;-2.120;2023-04-30T02:34:08;101520.72;;;7.47;100.00
22550;BME280;11441;57.164;-2.120;2023-04-30T02:36:35;101516.94;;;7.57;100.00
22550;BME280;11441;57.164;-2.120;2023-04-30T02:39:02;101519.75;;;7.43;100.00
22550;BME280;11441;57.164;-2.120;2023-04-30T02:41:29;101514.09;;;7.70;100.00
22550;BME280;11441;57.164;-2.120;2023-04-30T02:43:56;101517.72;;;7.57;100.00
22550;BME280;11441;57.164;-2.120;2023-04-30T02:46:24;101511.22;;;7.76;100.00
22550;BME280;11441;57.164;-2.120;2023-04-30T02:48:52;101511.91;;;7.90;100.00
22550;BME280;11441;57.164;-2.120;2023-04-30T02:51:19;101509.22;;;7.67;100.00
22550;BME280;11441;57.164;-2.120;2023-04-30T02:53:45;101501.31;;;7.66;100.00
22550;BME280;11441;57.164;-2.120;2023-04-30T02:56:12;101507.44;;;7.63;100.00
22550;BME280;11441;57.164;-2.120;2023-04-30T02:58:39;101502.63;;;7.68;100.00
22550;BME280;11441;57.164;-2.120;2023-04-30T03:01:06;101499.06;;;7.68;100.00
22550;BME280;11441;57.164;-2.120;2023-04-30T03:03:33;101501.84;;;7.77;100.00
22550;BME280;11441;57.164;-2.120;2023-04-30T03:06:00;101496.50;;;7.71;100.00
22550;BME280;11441;57.164;-2.120;2023-04-30T03:08:27;101495.56;;;7.76;100.00
22550;BME280;11441;57.164;-2.120;2023-04-30T03:10:54;101493.31;;;7.78;100.00
22550;BME280;11441;57.164;-2.120;2023-04-30T03:13:21;101487.19;;;7.81;100.00
22550;BME280;11441;57.164;-2.120;2023-04-30T03:15:48;101487.97;;;7.73;100.00
22550;BME280;11441;57.164;-2.120;2023-04-30T03:18:15;101494.31;;;7.82;100.00
22550;BME280;11441;57.164;-2.120;2023-04-30T03:20:42;101494.94;;;7.79;100.00
22550;BME280;11441;57.164;-2.120;2023-04-30T03:23:09;101493.75;;;7.71;100.00
22550;BME280;11441;57.164;-2.120;2023-04-30T03:25:36;101483.53;;;7.54;100.00
22550;BME280;11441;57.164;-2.120;2023-04-30T03:28:02;101477.88;;;7.51;100.00
22550;BME280;11441;57.164;-2.120;2023-04-30T03:30:29;101473.75;;;7.71;100.00
22550;BME280;11441;57.164;-2.120;2023-04-30T03:32:56;101474.22;;;7.64;100.00
22550;BME280;11441;57.164;-2.120;2023-04-30T03:35:23;101479.66;;;7.55;100.00
22550;BME280;11441;57.164;-2.120;2023-04-30T03:37:50;101464.72;;;7.70;100.00
22550;BME280;11441;57.164;-2.120;2023-04-30T03:40:17;101469.22;;;7.58;100.00
22550;BME280;11441;57.164;-2.120;2023-04-30T03:42:44;101457.69;;;7.47;100.00
22550;BME280;11441;57.164;-2.120;2023-04-30T03:45:11;101463.28;;;7.73;100.00
22550;BME280;11441;57.164;-2.120;2023-04-30T03:47:37;101461.97;;;7.62;100.00
22550;BME280;11441;57.164;-2.120;2023-04-30T03:50:05;101447.72;;;7.51;100.00
22550;BME280;11441;57.164;-2.120;2023-04-30T03:52:31;101458.44;;;7.70;100.00
22550;BME280;11441;57.164;-2.120;2023-04-30T03:55:02;101448.78;;;7.81;100.00
22550;BME280;11441;57.164;-2.120;2023-04-30T03:58:07;101449.25;;;7.74;100.00
22550;BME280;11441;57.164;-2.120;2023-04-30T04:00:34;101448.53;;;7.51;100.00
22550;BME280;11441;57.164;-2.120;2023-04-30T04:03:02;101444.19;;;7.59;100.00
22550;BME280;11441;57.164;-2.120;2023-04-30T04:05:29;101439.69;;;7.54;100.00
22550;BME280;11441;57.164;-2.120;2023-04-30T04:07:57;101441.66;;;7.71;100.00
22550;BME280;11441;57.164;-2.120;2023-04-30T04:10:24;101438.84;;;7.54;100.00
22550;BME280;11441;57.164;-2.120;2023-04-30T04:12:50;101433.06;;;7.55;100.00
22550;BME280;11441;57.164;-2.120;2023-04-30T04:15:18;101438.38;;;7.52;100.00
22550;BME280;11441;57.164;-2.120;2023-04-30T04:17:46;101434.41;;;7.67;100.00
22550;BME280;11441;57.164;-2.120;2023-04-30T04:20:13;101433.75;;;7.61;100.00
22550;BME280;11441;57.164;-2.120;2023-04-30T04:22:41;101424.97;;;7.50;100.00
22550;BME280;11441;57.164;-2.120;2023-04-30T04:25:08;101427.44;;;7.61;100.00
22550;BME280;11441;57.164;-2.120;2023-04-30T04:27:35;101432.47;;;7.67;100.00
22550;BME280;11441;57.164;-2.120;2023-04-30T04:30:02;101429.09;;;7.70;100.00
22550;BME280;11441;57.164;-2.120;2023-04-30T04:32:29;101431.28;;;7.51;100.00
22550;BME280;11441;57.164;-2.120;2023-04-30T04:34:58;101424.53;;;7.66;100.00
22550;BME280;11441;57.164;-2.120;2023-04-30T04:37:25;101417.97;;;7.76;100.00
22550;BME280;11441;57.164;-2.120;2023-04-30T04:39:52;101428.78;;;7.72;100.00
22550;BME280;11441;57.164;-2.120;2023-04-30T04:42:20;101425.53;;;7.61;100.00
22550;BME280;11441;57.164;-2.120;2023-04-30T04:44:47;101417.81;;;7.72;100.00
22550;BME280;11441;57.164;-2.120;2023-04-30T04:47:15;101418.91;;;7.71;100.00
22550;BME280;11441;57.164;-2.120;2023-04-30T04:49:42;101417.84;;;7.81;100.00
22550;BME280;11441;57.164;-2.120;2023-04-30T04:52:09;101412.19;;;7.86;100.00
22550;BME280;11441;57.164;-2.120;2023-04-30T04:54:35;101414.13;;;7.94;100.00
22550;BME280;11441;57.164;-2.120;2023-04-30T04:57:02;101416.84;;;7.85;100.00
22550;BME280;11441;57.164;-2.120;2023-04-30T04:59:29;101416.91;;;8.03;100.00
22550;BME280;11441;57.164;-2.120;2023-04-30T05:01:56;101423.69;;;7.97;100.00
22550;BME280;11441;57.164;-2.120;2023-04-30T05:04:23;101409.78;;;7.93;100.00
22550;BME280;11441;57.164;-2.120;2023-04-30T05:07:09;101405.56;;;7.87;100.00
22550;BME280;11441;57.164;-2.120;2023-04-30T05:09:36;101407.34;;;7.83;100.00
22550;BME280;11441;57.164;-2.120;2023-04-30T05:12:03;101402.66;;;7.83;100.00
22550;BME280;11441;57.164;-2.120;2023-04-30T05:14:30;101412.50;;;7.76;100.00
22550;BME280;11441;57.164;-2.120;2023-04-30T05:16:56;101405.91;;;7.94;100.00
22550;BME280;11441;57.164;-2.120;2023-04-30T05:19:23;101408.47;;;7.90;100.00
22550;BME280;11441;57.164;-2.120;2023-04-30T05:21:50;101393.66;;;8.00;100.00
22550;BME280;11441;57.164;-2.120;2023-04-30T05:24:17;101388.50;;;7.99;100.00
22550;BME280;11441;57.164;-2.120;2023-04-30T05:26:44;101393.16;;;7.89;100.00
22550;BME280;11441;57.164;-2.120;2023-04-30T05:29:11;101398.97;;;7.88;100.00
22550;BME280;11441;57.164;-2.120;2023-04-30T05:31:38;101392.53;;;7.84;100.00
22550;BME280;11441;57.164;-2.120;2023-04-30T05:34:05;101393.97;;;7.99;100.00
22550;BME280;11441;57.164;-2.120;2023-04-30T05:36:32;101385.78;;;8.16;100.00
22550;BME280;11441;57.164;-2.120;2023-04-30T05:38:58;101390.78;;;8.14;100.00
22550;BME280;11441;57.164;-2.120;2023-04-30T05:41:25;101382.22;;;7.98;100.00
22550;BME280;11441;57.164;-2.120;2023-04-30T05:43:52;101380.44;;;8.02;100.00
22550;BME280;11441;57.164;-2.120;2023-04-30T05:46:19;101383.97;;;8.11;100.00
22550;BME280;11441;57.164;-2.120;2023-04-30T05:49:04;101376.75;;;8.16;100.00
22550;BME280;11441;57.164;-2.120;2023-04-30T05:51:31;101375.13;;;8.15;100.00
22550;BME280;11441;57.164;-2.120;2023-04-30T05:53:58;101376.56;;;7.95;100.00
22550;BME280;11441;57.164;-2.120;2023-04-30T05:56:25;101370.59;;;8.01;100.00
22550;BME280;11441;57.164;-2.120;2023-04-30T05:58:53;101362.84;;;8.03;100.00
22550;BME280;11441;57.164;-2.120;2023-04-30T06:01:19;101366.41;;;8.12;100.00
22550;BME280;11441;57.164;-2.120;2023-04-30T06:03:46;101363.50;;;8.09;100.00
22550;BME280;11441;57.164;-2.120;2023-04-30T06:06:13;101362.84;;;8.03;100.00
22550;BME280;11441;57.164;-2.120;2023-04-30T06:08:40;101355.44;;;8.12;100.00
22550;BME280;11441;57.164;-2.120;2023-04-30T06:11:11;101358.81;;;8.18;100.00
22550;BME280;11441;57.164;-2.120;2023-04-30T06:13:39;101353.81;;;8.29;100.00
22550;BME280;11441;57.164;-2.120;2023-04-30T06:16:06;101346.56;;;8.33;100.00
22550;BME280;11441;57.164;-2.120;2023-04-30T06:18:34;101344.28;;;8.26;100.00
22550;BME280;11441;57.164;-2.120;2023-04-30T06:21:01;101336.53;;;8.37;100.00
22550;BME280;11441;57.164;-2.120;2023-04-30T06:23:46;101336.22;;;8.47;100.00
22550;BME280;11441;57.164;-2.120;2023-04-30T06:26:32;101340.75;;;8.26;100.00
22550;BME280;11441;57.164;-2.120;2023-04-30T06:28:58;101340.09;;;8.20;100.00
22550;BME280;11441;57.164;-2.120;2023-04-30T06:31:25;101342.34;;;8.01;100.00
22550;BME280;11441;57.164;-2.120;2023-04-30T06:33:52;101331.69;;;8.17;100.00
22550;BME280;11441;57.164;-2.120;2023-04-30T06:39:23;101333.00;;;8.10;100.00
22550;BME280;11441;57.164;-2.120;2023-04-30T06:41:50;101331.06;;;8.20;100.00
22550;BME280;11441;57.164;-2.120;2023-04-30T06:44:20;101323.28;;;7.96;100.00
22550;BME280;11441;57.164;-2.120;2023-04-30T06:46:47;101333.63;;;8.07;100.00
22550;BME280;11441;57.164;-2.120;2023-04-30T06:49:13;101336.53;;;8.20;100.00
22550;BME280;11441;57.164;-2.120;2023-04-30T06:51:40;101332.34;;;8.22;100.00
22550;BME280;11441;57.164;-2.120;2023-04-30T06:54:08;101334.28;;;8.22;100.00
22550;BME280;11441;57.164;-2.120;2023-04-30T06:56:35;101337.19;;;8.17;100.00
22550;BME280;11441;57.164;-2.120;2023-04-30T06:59:02;101331.84;;;7.94;100.00
22550;BME280;11441;57.164;-2.120;2023-04-30T07:01:29;101328.16;;;8.16;100.00
22550;BME280;11441;57.164;-2.120;2023-04-30T07:03:56;101336.53;;;8.28;100.00
22550;BME280;11441;57.164;-2.120;2023-04-30T07:06:23;101325.56;;;8.28;100.00
22550;BME280;11441;57.164;-2.120;2023-04-30T07:08:50;101318.78;;;8.26;100.00
22550;BME280;11441;57.164;-2.120;2023-04-30T07:11:36;101315.06;;;8.30;100.00
22550;BME280;11441;57.164;-2.120;2023-04-30T07:14:02;101311.69;;;8.25;100.00
22550;BME280;11441;57.164;-2.120;2023-04-30T07:16:31;101311.19;;;8.31;100.00
22550;BME280;11441;57.164;-2.120;2023-04-30T07:18:58;101314.59;;;8.20;100.00
22550;BME280;11441;57.164;-2.120;2023-04-30T07:21:25;101303.75;;;8.23;100.00
22550;BME280;11441;57.164;-2.120;2023-04-30T07:23:53;101317.34;;;8.20;100.00
22550;BME280;11441;57.164;-2.120;2023-04-30T07:26:20;101307.34;;;8.24;100.00
22550;BME280;11441;57.164;-2.120;2023-04-30T07:28:47;101301.03;;;8.06;100.00
22550;BME280;11441;57.164;-2.120;2023-04-30T07:31:15;101303.75;;;8.23;100.00
22550;BME280;11441;57.164;-2.120;2023-04-30T07:33:42;101295.19;;;8.34;100.00
22550;BME280;11441;57.164;-2.120;2023-04-30T07:36:09;101290.69;;;8.20;100.00
22550;BME280;11441;57.164;-2.120;2023-04-30T07:38:36;101295.84;;;8.22;100.00
22550;BME280;11441;57.164;-2.120;2023-04-30T07:41:23;101298.59;;;8.22;100.00
22550;BME280;11441;57.164;-2.120;2023-04-30T07:43:50;101295.69;;;8.44;100.00
22550;BME280;11441;57.164;-2.120;2023-04-30T07:46:17;101280.06;;;8.45;100.00
22550;BME280;11441;57.164;-2.120;2023-04-30T07:49:02;101289.06;;;8.54;100.00
22550;BME280;11441;57.164;-2.120;2023-04-30T07:51:48;101287.94;;;8.38;100.00
22550;BME280;11441;57.164;-2.120;2023-04-30T07:54:15;101294.22;;;8.56;100.00
22550;BME280;11441;57.164;-2.120;2023-04-30T07:56:42;101279.72;;;8.38;100.00
22550;BME280;11441;57.164;-2.120;2023-04-30T07:59:09;101284.53;;;8.41;100.00
22550;BME280;11441;57.164;-2.120;2023-04-30T08:01:35;101282.94;;;8.48;100.00
22550;BME280;11441;57.164;-2.120;2023-04-30T08:04:03;101280.50;;;8.38;100.00
22550;BME280;11441;57.164;-2.120;2023-04-30T08:06:30;101274.25;;;8.46;100.00
22550;BME280;11441;57.164;-2.120;2023-04-30T08:08:58;101266.00;;;8.46;100.00
22550;BME280;11441;57.164;-2.120;2023-04-30T08:11:25;101267.25;;;8.40;100.00
22550;BME280;11441;57.164;-2.120;2023-04-30T08:13:52;101269.56;;;8.29;100.00
22550;BME280;11441;57.164;-2.120;2023-04-30T08:16:19;101262.09;;;8.47;100.00
22550;BME280;11441;57.164;-2.120;2023-04-30T08:18:46;101251.13;;;8.47;100.00
22550;BME280;11441;57.164;-2.120;2023-04-30T08:21:15;101260.84;;;8.45;100.00
22550;BME280;11441;57.164;-2.120;2023-04-30T08:23:43;101266.47;;;8.40;100.00
22550;BME280;11441;57.164;-2.120;2023-04-30T08:26:10;101268.06;;;8.41;100.00
22550;BME280;11441;57.164;-2.120;2023-04-30T08:28:55;101262.09;;;8.47;100.00
22550;BME280;11441;57.164;-2.120;2023-04-30T08:31:22;101249.16;;;8.39;100.00
22550;BME280;11441;57.164;-2.120;2023-04-30T08:33:49;101256.47;;;8.26;100.00
22550;BME280;11441;57.164;-2.120;2023-04-30T08:36:16;101248.41;;;8.21;100.00
22550;BME280;11441;57.164;-2.120;2023-04-30T08:38:43;101243.53;;;8.36;100.00
22550;BME280;11441;57.164;-2.120;2023-04-30T08:41:14;101243.69;;;8.39;100.00
22550;BME280;11441;57.164;-2.120;2023-04-30T08:43:42;101240.34;;;8.16;100.00
22550;BME280;11441;57.164;-2.120;2023-04-30T08:46:11;101247.44;;;8.26;100.00
22550;BME280;11441;57.164;-2.120;2023-04-30T08:48:40;101240.47;;;8.37;100.00
22550;BME280;11441;57.164;-2.120;2023-04-30T08:51:07;101229.19;;;8.21;100.00
22550;BME280;11441;57.164;-2.120;2023-04-30T08:53:35;101239.34;;;8.38;100.00
22550;BME280;11441;57.164;-2.120;2023-04-30T08:56:21;101243.53;;;8.44;100.00
22550;BME280;11441;57.164;-2.120;2023-04-30T08:58:50;101235.13;;;8.49;100.00
22550;BME280;11441;57.164;-2.120;2023-04-30T09:01:36;101230.97;;;8.43;100.00
22550;BME280;11441;57.164;-2.120;2023-04-30T09:04:04;101237.38;;;8.56;100.00
22550;BME280;11441;57.164;-2.120;2023-04-30T09:06:31;101236.88;;;8.63;100.00
22550;BME280;11441;57.164;-2.120;2023-04-30T09:09:08;101236.06;;;8.62;100.00
22550;BME280;11441;57.164;-2.120;2023-04-30T09:11:36;101232.38;;;8.49;100.00
22550;BME280;11441;57.164;-2.120;2023-04-30T09:14:03;101220.78;;;8.44;100.00
22550;BME280;11441;57.164;-2.120;2023-04-30T09:16:46;101227.47;;;8.73;100.00
22550;BME280;11441;57.164;-2.120;2023-04-30T09:19:27;101232.59;;;8.74;100.00
22550;BME280;11441;57.164;-2.120;2023-04-30T09:21:54;101215.84;;;8.67;100.00
22550;BME280;11441;57.164;-2.120;2023-04-30T09:24:47;101225.47;;;8.82;100.00
22550;BME280;11441;57.164;-2.120;2023-04-30T09:27:19;101203.16;;;8.54;100.00
22550;BME280;11441;57.164;-2.120;2023-04-30T09:29:47;101213.09;;;8.67;100.00
22550;BME280;11441;57.164;-2.120;2023-04-30T09:32:14;101202.63;;;8.60;100.00
22550;BME280;11441;57.164;-2.120;2023-04-30T09:34:41;101195.34;;;8.64;100.00
22550;BME280;11441;57.164;-2.120;2023-04-30T09:37:09;101213.38;;;8.74;100.00
22550;BME280;11441;57.164;-2.120;2023-04-30T09:39:50;101206.66;;;8.63;100.00
22550;BME280;11441;57.164;-2.120;2023-04-30T09:42:18;101195.94;;;8.79;100.00
22550;BME280;11441;57.164;-2.120;2023-04-30T09:44:46;101203.38;;;8.78;100.00
22550;BME280;11441;57.164;-2.120;2023-04-30T09:47:17;101193.41;;;8.65;100.00
22550;BME280;11441;57.164;-2.120;2023-04-30T09:50:03;101192.19;;;8.83;100.00
22550;BME280;11441;57.164;-2.120;2023-04-30T09:52:31;101193.59;;;8.60;100.00
22550;BME280;11441;57.164;-2.120;2023-04-30T09:54:58;101189.22;;;8.67;100.00
22550;BME280;11441;57.164;-2.120;2023-04-30T09:57:27;101187.34;;;8.80;100.00
22550;BME280;11441;57.164;-2.120;2023-04-30T09:59:57;101176.59;;;8.96;100.00
22550;BME280;11441;57.164;-2.120;2023-04-30T10:02:25;101180.66;;;8.99;100.00
22550;BME280;11441;57.164;-2.120;2023-04-30T10:05:11;101176.56;;;9.05;100.00
22550;BME280;11441;57.164;-2.120;2023-04-30T10:07:38;101179.09;;;9.10;100.00
22550;BME280;11441;57.164;-2.120;2023-04-30T10:10:09;101173.00;;;9.04;100.00
22550;BME280;11441;57.164;-2.120;2023-04-30T10:12:59;101176.34;;;9.10;100.00
22550;BME280;11441;57.164;-2.120;2023-04-30T10:15:46;101177.41;;;9.27;100.00
22550;BME280;11441;57.164;-2.120;2023-04-30T10:18:20;101176.91;;;9.24;100.00
22550;BME280;11441;57.164;-2.120;2023-04-30T10:20:49;101186.59;;;9.01;100.00
22550;BME280;11441;57.164;-2.120;2023-04-30T10:23:17;101181.34;;;8.87;100.00
22550;BME280;11441;57.164;-2.120;2023-04-30T10:25:44;101175.09;;;9.08;100.00
22550;BME280;11441;57.164;-2.120;2023-04-30T10:28:11;101170.19;;;8.92;100.00
22550;BME280;11441;57.164;-2.120;2023-04-30T10:30:40;101174.22;;;8.86;100.00
22550;BME280;11441;57.164;-2.120;2023-04-30T10:35:48;101163.03;;;9.21;100.00
22550;BME280;11441;57.164;-2.120;2023-04-30T10:38:29;101163.84;;;9.21;100.00
22550;BME280;11441;57.164;-2.120;2023-04-30T10:41:01;101166.53;;;9.09;100.00
22550;BME280;11441;57.164;-2.120;2023-04-30T10:43:31;101151.22;;;8.99;100.00
22550;BME280;11441;57.164;-2.120;2023-04-30T10:45:59;101146.00;;;9.06;100.00
22550;BME280;11441;57.164;-2.120;2023-04-30T10:48:26;101157.78;;;9.28;100.00
22550;BME280;11441;57.164;-2.120;2023-04-30T10:50:58;101138.97;;;9.39;100.00
22550;BME280;11441;57.164;-2.120;2023-04-30T10:53:25;101146.94;;;9.32;100.00
22550;BME280;11441;57.164;-2.120;2023-04-30T10:56:15;101140.03;;;9.47;100.00
22550;BME280;11441;57.164;-2.120;2023-04-30T10:58:57;101133.38;;;9.69;100.00
22550;BME280;11441;57.164;-2.120;2023-04-30T11:01:25;101132.34;;;9.73;100.00
22550;BME280;11441;57.164;-2.120;2023-04-30T11:06:54;101137.00;;;9.94;100.00
22550;BME280;11441;57.164;-2.120;2023-04-30T11:09:42;101127.41;;;10.12;100.00
22550;BME280;11441;57.164;-2.120;2023-04-30T11:12:13;101127.75;;;10.11;100.00
22550;BME280;11441;57.164;-2.120;2023-04-30T11:14:44;101118.00;;;10.13;100.00
22550;BME280;11441;57.164;-2.120;2023-04-30T11:17:20;101113.78;;;10.28;100.00
22550;BME280;11441;57.164;-2.120;2023-04-30T11:19:50;101104.94;;;10.23;100.00
22550;BME280;11441;57.164;-2.120;2023-04-30T11:22:20;101108.06;;;10.33;100.00
22550;BME280;11441;57.164;-2.120;2023-04-30T11:25:10;101103.38;;;10.46;100.00
22550;BME280;11441;57.164;-2.120;2023-04-30T11:27:42;101096.81;;;10.63;100.00
22550;BME280;11441;57.164;-2.120;2023-04-30T11:30:11;101094.72;;;10.85;100.00
22550;BME280;11441;57.164;-2.120;2023-04-30T11:32:40;101092.22;;;10.67;100.00
22550;BME280;11441;57.164;-2.120;2023-04-30T11:35:07;101085.00;;;10.75;100.00
22550;BME280;11441;57.164;-2.120;2023-04-30T11:40:06;101077.16;;;10.89;100.00
22550;BME280;11441;57.164;-2.120;2023-04-30T11:42:34;101073.97;;;11.16;100.00
22550;BME280;11441;57.164;-2.120;2023-04-30T11:45:12;101082.03;;;11.08;100.00
22550;BME280;11441;57.164;-2.120;2023-04-30T11:47:49;101083.63;;;11.22;100.00
22550;BME280;11441;57.164;-2.120;2023-04-30T11:50:19;101061.22;;;10.70;100.00
22550;BME280;11441;57.164;-2.120;2023-04-30T11:52:52;101057.34;;;10.71;100.00
22550;BME280;11441;57.164;-2.120;2023-04-30T11:55:22;101064.66;;;10.92;100.00
22550;BME280;11441;57.164;-2.120;2023-04-30T11:57:51;101065.50;;;11.08;100.00
22550;BME280;11441;57.164;-2.120;2023-04-30T12:00:20;101059.50;;;10.66;100.00
22550;BME280;11441;57.164;-2.120;2023-04-30T12:02:48;101058.66;;;10.90;100.00
22550;BME280;11441;57.164;-2.120;2023-04-30T12:05:17;101044.63;;;10.95;100.00
22550;BME280;11441;57.164;-2.120;2023-04-30T12:07:46;101048.31;;;10.99;100.00
22550;BME280;11441;57.164;-2.120;2023-04-30T12:10:13;101050.97;;;10.96;100.00
22550;BME280;11441;57.164;-2.120;2023-04-30T12:12:46;101051.06;;;10.99;100.00
22550;BME280;11441;57.164;-2.120;2023-04-30T12:15:16;101039.72;;;10.88;100.00
22550;BME280;11441;57.164;-2.120;2023-04-30T12:17:45;101043.91;;;11.10;100.00
22550;BME280;11441;57.164;-2.120;2023-04-30T12:20:30;101046.25;;;10.96;100.00
22550;BME280;11441;57.164;-2.120;2023-04-30T12:23:16;101037.66;;;10.98;100.00
22550;BME280;11441;57.164;-2.120;2023-04-30T12:25:44;101035.00;;;11.01;100.00
22550;BME280;11441;57.164;-2.120;2023-04-30T12:28:11;101037.69;;;10.85;100.00
22550;BME280;11441;57.164;-2.120;2023-04-30T12:30:38;101034.00;;;11.22;100.00
22550;BME280;11441;57.164;-2.120;2023-04-30T12:33:04;101030.13;;;11.10;100.00
22550;BME280;11441;57.164;-2.120;2023-04-30T12:35:32;101034.19;;;11.01;100.00
22550;BME280;11441;57.164;-2.120;2023-04-30T12:38:04;101028.22;;;10.99;100.00
22550;BME280;11441;57.164;-2.120;2023-04-30T12:40:32;101024.09;;;10.92;100.00
22550;BME280;11441;57.164;-2.120;2023-04-30T12:43:07;101024.84;;;10.77;100.00
22550;BME280;11441;57.164;-2.120;2023-04-30T12:48:11;101024.03;;;10.77;100.00
22550;BME280;11441;57.164;-2.120;2023-04-30T12:50:39;101017.66;;;10.88;100.00
22550;BME280;11441;57.164;-2.120;2023-04-30T12:53:06;101018.31;;;11.10;100.00
22550;BME280;11441;57.164;-2.120;2023-04-30T12:56:08;101010.19;;;11.01;100.00
22550;BME280;11441;57.164;-2.120;2023-04-30T12:58:35;101004.19;;;11.11;100.00
22550;BME280;11441;57.164;-2.120;2023-04-30T13:01:05;100989.63;;;10.99;100.00
22550;BME280;11441;57.164;-2.120;2023-04-30T13:03:36;100993.44;;;11.22;100.00
22550;BME280;11441;57.164;-2.120;2023-04-30T13:06:03;100991.69;;;11.02;100.00
22550;BME280;11441;57.164;-2.120;2023-04-30T13:08:30;100989.94;;;11.09;100.00
22550;BME280;11441;57.164;-2.120;2023-04-30T13:11:07;100984.59;;;11.01;100.00
22550;BME280;11441;57.164;-2.120;2023-04-30T13:13:55;100977.19;;;11.49;100.00
22550;BME280;11441;57.164;-2.120;2023-04-30T13:16:22;100969.63;;;11.46;100.00
22550;BME280;11441;57.164;-2.120;2023-04-30T13:18:53;100966.06;;;11.61;100.00